Latest Weather Observations for Pallamana

IDS60801

Issued at 7:31 am CDT Wednesday 22 February 2017 (issued every 30 minutes, with the page automatically refreshed every 10 minutes)

About weather observations | Map of weather stations | Latest weather observations for SA | Other Formats
Station Details ID: 024584 Name: PALLAMANA AERODROME Lat: -35.06 Lon: 139.23 Height: 45.0 m
Data from the previous 72 hours. | See also: Recent months at Pallamana
Date/Time
CDT
Temp
°C
App
Temp
°C
Dew
Point
°C
Rel
Hum
%
Delta-T
°C
Wind Press
QNH
hPa
Press
MSL
hPa
Rain since
9am
mm
Dir  Spd
km/h
Gust
km/h
Spd
kts
Gust
kts
22/07:30am 16.3 13.9 4.1 44 5.7 N 6 7 3 4 1009.5 1009.4 0.0
22/07:00am 15.4 11.9 1.5 39 6.1 NNW 9 13 5 7 1009.3 1009.2 0.0
22/06:30am 17.2 11.7 0.9 33 7.2 N 19 22 10 12 1009.2 1009.1 0.0
22/06:00am 15.8 10.5 1.8 39 6.2 NNE 19 20 10 11 1009.5 1009.4 0.0
22/05:30am 15.3 10.9 2.6 42 5.7 N 15 20 8 11 1009.4 1009.3 0.0
22/05:00am 13.5 9.2 3.5 51 4.5 N 15 17 8 9 1009.6 1009.5 0.0
22/04:30am 14.6 10.0 3.7 48 5.0 N 17 20 9 11 1009.8 1009.7 0.0
22/04:00am 13.9 9.7 3.8 50 4.6 N 15 17 8 9 1009.9 1009.8 0.0
22/03:30am 14.8 11.0 3.7 47 5.1 N 13 17 7 9 1010.6 1010.5 0.0
22/03:00am 14.8 10.5 3.4 46 5.2 N 15 17 8 9 1010.6 1010.5 0.0
22/02:30am 17.1 12.0 3.0 39 6.5 N 19 20 10 11 1011.0 1010.9 0.0
22/02:00am 19.4 14.0 2.3 32 7.9 N 20 28 11 15 1011.4 1011.2 0.0
22/01:30am 14.4 10.7 4.2 50 4.7 N 13 13 7 7 1011.9 1011.7 0.0
22/01:00am 16.3 12.5 4.1 44 5.7 N 13 17 7 9 1012.2 1012.0 0.0
22/12:30am 16.8 12.3 4.3 43 5.9 N 17 20 9 11 1012.6 1012.4 0.0
22/12:00am 17.8 13.3 4.3 40 6.4 N 17 20 9 11 1013.0 1012.8 0.0
 
Date/Time
CDT
Temp
°C
App
Temp
°C
Dew
Point
°C
Rel
Hum
%
Delta-T
°C
Wind Press
QNH
hPa
Press
MSL
hPa
Rain since
9am
mm
Dir  Spd
km/h
Gust
km/h
Spd
kts
Gust
kts
21/11:30pm 18.3 13.9 4.5 40 6.6 N 17 20 9 11 1013.3 1013.1 0.0
21/11:00pm 17.6 14.3 4.3 41 6.3 NW 11 13 6 7 1013.6 1013.4 0.0
21/10:30pm 15.2 13.0 6.1 54 4.4 NNE 7 9 4 5 1014.0 1013.8 0.0
21/10:00pm 19.5 17.0 4.9 38 7.1 NNW 7 9 4 5 1014.1 1013.9 0.0
21/09:30pm 20.4 17.2 5.1 36 7.5 NNE 11 13 6 7 1013.9 1013.7 0.0
21/09:00pm 21.1 18.0 5.4 36 7.8 NE 11 13 6 7 1013.7 1013.5 0.0
21/08:30pm 23.6 19.6 5.0 30 9.3 NE 15 19 8 10 1013.5 1013.3 0.0
21/08:00pm 24.8 20.5 5.3 28 9.9 NE 17 20 9 11 1013.2 1013.0 0.0
21/07:30pm 27.3 22.0 5.1 24 11.4 NE 22 28 12 15 1013.0 1012.8 0.0
21/07:00pm 28.5 22.9 5.5 23 12.0 NE 24 35 13 19 1012.8 1012.6 0.0
21/06:30pm 29.1 23.9 5.3 22 12.4 NNE 22 35 12 19 1012.9 1012.7 0.0
21/06:00pm 29.5 24.2 5.1 21 12.7 NE 22 32 12 17 1013.0 1012.8 0.0
21/05:30pm 29.5 23.8 4.8 21 12.8 NNE 24 33 13 18 1013.4 1013.2 0.0
21/05:00pm 29.7 24.1 5.2 21 12.8 NE 24 33 13 18 1013.5 1013.3 0.0
21/04:30pm 29.9 24.6 4.9 20 13.0 NE 22 33 12 18 1014.0 1013.8 0.0
21/04:00pm 29.2 23.2 5.2 22 12.5 NE 26 39 14 21 1014.6 1014.4 0.0
21/03:30pm 29.2 24.4 5.5 22 12.4 NE 20 30 11 16 1015.2 1015.0 0.0
21/03:00pm 28.2 23.6 5.5 23 11.8 NNE 19 35 10 19 1015.7 1015.5 0.0
21/02:30pm 28.2 23.7 6.1 24 11.6 NNE 19 37 10 20 1016.3 1016.1 0.0
21/02:00pm 27.9 22.9 6.5 25 11.3 NNE 22 33 12 18 1016.8 1016.6 0.0
21/01:30pm 26.8 21.6 5.4 25 11.0 NE 22 33 12 18 1017.1 1016.9 0.0
21/01:00pm 26.3 21.5 5.7 26 10.6 NNE 20 32 11 17 1017.6 1017.4 0.0
21/12:30pm 25.2 20.4 5.6 28 10.0 N 20 35 11 19 1018.4 1018.2 0.0
21/12:00pm 24.3 18.6 5.0 28 9.7 N 24 37 13 20 1018.7 1018.5 0.0
21/11:30am 23.5 17.8 5.1 30 9.2 NNE 24 32 13 17 1019.2 1019.0 0.0
21/11:00am 21.1 15.6 5.9 37 7.6 NNE 24 32 13 17 1019.6 1019.4 0.0
21/10:30am 20.1 14.6 6.0 39 7.0 NNE 24 32 13 17 1019.7 1019.5 0.0
21/10:00am 18.7 14.6 6.4 44 6.1 NNE 17 24 9 13 1020.1 1019.9 0.0
21/09:30am 16.6 12.5 6.1 50 5.1 NNE 17 22 9 12 1020.4 1020.2 0.0
21/09:00am 15.1 11.2 6.9 58 4.0 N 17 20 9 11 1020.4 1020.2 0.0
21/08:30am 12.8 11.1 8.4 74 2.2 N 7 9 4 5 1020.5 1020.3 0.0
21/08:00am 9.3 8.9 8.3 93 0.5 CALM 0 0 0 0 1020.3 1020.1 0.0
21/07:30am 6.9 6.1 6.5 97 0.2 CALM 0 0 0 0 1019.9 1019.7 0.0
21/07:00am 5.2 4.0 4.5 95 0.3 CALM 0 2 0 1 1019.8 1019.6 0.0
21/06:30am 6.4 5.3 5.3 93 0.5 CALM 0 0 0 0 1019.3 1019.1 0.0
21/06:00am 6.1 5.0 5.0 93 0.5 CALM 0 0 0 0 1019.1 1018.9 0.0
21/05:30am 7.0 5.7 5.9 93 0.5 WNW 2 7 1 4 1019.2 1019.0 0.0
21/05:00am 6.1 5.0 5.2 94 0.4 CALM 0 0 0 0 1019.5 1019.3 0.0
21/04:30am 6.9 4.8 5.6 91 0.6 W 6 9 3 5 1019.2 1019.0 0.0
21/04:00am 6.8 4.7 5.9 94 0.4 W 6 7 3 4 1019.1 1018.9 0.0
21/03:30am 6.9 5.9 5.8 93 0.5 CALM 0 0 0 0 1019.1 1018.9 0.0
21/03:00am 7.3 6.4 6.0 91 0.6 CALM 0 0 0 0 1019.5 1019.3 0.0
21/02:30am 7.8 7.0 6.5 91 0.6 CALM 0 0 0 0 1019.7 1019.5 0.0
21/02:00am 8.7 6.3 7.2 90 0.7 WSW 9 11 5 6 1019.7 1019.5 0.0
21/01:30am 9.1 8.4 7.0 87 1.0 CALM 0 0 0 0 1019.8 1019.6 0.0
21/01:00am 9.2 8.5 7.1 87 1.0 CALM 0 0 0 0 1020.0 1019.8 0.0
21/12:30am 9.0 8.2 6.6 85 1.1 CALM 0 6 0 3 1020.3 1020.1 0.0
21/12:00am 10.0 8.0 7.0 81 1.4 WSW 7 9 4 5 1020.5 1020.3 0.0
 
Date/Time
CDT
Temp
°C
App
Temp
°C
Dew
Point
°C
Rel
Hum
%
Delta-T
°C
Wind Press
QNH
hPa
Press
MSL
hPa
Rain since
9am
mm
Dir  Spd
km/h
Gust
km/h
Spd
kts
Gust
kts
20/11:30pm 10.1 7.7 7.1 81 1.4 WSW 9 11 5 6 1020.5 1020.3 0.0
20/11:00pm 10.9 7.8 7.1 77 1.8 SW 13 13 7 7 1020.3 1020.1 0.0
20/10:30pm 11.7 9.0 7.3 74 2.1 SW 11 13 6 7 1020.3 1020.1 0.0
20/10:00pm 11.5 8.9 7.6 77 1.9 SW 11 13 6 7 1020.1 1019.9 0.0
20/09:30pm 12.2 9.5 7.5 73 2.3 SW 11 13 6 7 1019.8 1019.6 0.0
20/09:00pm 14.1 11.5 7.6 65 3.2 SSW 11 15 6 8 1019.7 1019.5 0.0
20/08:30pm 15.2 11.6 6.8 57 4.1 S 15 20 8 11 1019.4 1019.2 0.0
20/08:00pm 16.1 12.0 6.2 52 4.8 S 17 22 9 12 1019.0 1018.8 0.0
20/07:30pm 17.3 12.4 6.8 50 5.2 S 22 28 12 15 1018.5 1018.3 0.0
20/07:00pm 18.3 12.8 6.1 44 6.0 S 24 32 13 17 1018.0 1017.8 0.0
20/06:30pm 19.4 14.3 5.8 41 6.7 S 22 28 12 15 1017.7 1017.5 0.0
20/06:00pm 19.2 14.6 6.6 44 6.3 S 20 30 11 16 1017.6 1017.4 0.0
20/05:30pm 19.6 13.9 6.9 43 6.4 S 26 41 14 22 1017.4 1017.2 0.0
20/05:00pm 20.9 15.3 7.0 40 7.1 S 26 39 14 21 1017.2 1017.0 0.0
20/04:30pm 20.4 14.8 7.0 41 6.8 S 26 33 14 18 1017.1 1016.9 0.0
20/04:00pm 22.1 16.2 5.8 34 8.2 SSE 26 39 14 21 1017.0 1016.8 0.0
20/03:30pm 21.9 16.1 4.6 32 8.5 S 24 37 13 20 1017.2 1017.0 0.0
20/03:00pm 20.9 16.4 4.1 33 8.1 SSW 17 32 9 17 1017.3 1017.1 0.0
20/02:30pm 21.6 16.6 4.7 33 8.3 SW 20 32 11 17 1017.6 1017.4 0.0
20/02:00pm 21.5 17.1 4.8 33 8.2 WSW 17 28 9 15 1017.7 1017.5 0.0
20/01:30pm 21.1 16.1 4.7 34 8.0 SW 20 32 11 17 1017.9 1017.7 0.0
20/01:00pm 21.3 16.9 4.8 34 8.1 SW 17 32 9 17 1018.2 1018.0 0.0
20/12:30pm 19.9 15.8 4.6 36 7.4 SW 15 30 8 16 1018.3 1018.1 0.0
20/12:00pm 20.1 16.6 5.5 38 7.2 SW 13 20 7 11 1018.5 1018.3 0.0
20/11:30am 19.2 14.5 5.2 39 6.8 SW 19 26 10 14 1018.8 1018.6 0.0
20/11:00am 19.0 14.8 5.5 41 6.6 SW 17 28 9 15 1019.0 1018.8 0.0
20/10:30am 18.1 14.5 6.9 48 5.6 SW 15 20 8 11 1019.2 1019.0 0.0
20/10:00am 17.3 14.7 7.6 53 4.9 S 11 17 6 9 1019.3 1019.1 0.0
20/09:30am 16.0 14.5 8.3 60 3.9 SE 6 13 3 7 1019.2 1019.0 0.0
20/09:00am 15.6 14.7 9.4 66 3.2 ENE 4 6 2 3 1019.0 1018.8 1.8
20/08:30am 15.1 14.5 10.3 73 2.5 SSW 4 6 2 3 1019.0 1018.8 1.8
20/08:00am 14.0 14.1 11.6 85 1.3 SSW 2 7 1 4 1018.6 1018.4 1.8
20/07:30am 13.4 12.8 11.7 89 0.9 S 6 9 3 5 1018.2 1018.0 1.8
20/07:00am 13.0 12.3 11.5 91 0.8 S 6 7 3 4 1017.9 1017.7 1.8
20/06:30am 13.3 12.6 11.4 88 1.0 SW 6 9 3 5 1017.6 1017.4 1.8
20/06:00am 13.5 11.4 11.0 85 1.3 WSW 13 15 7 8 1017.2 1017.0 1.8
20/05:30am 13.5 11.7 11.0 85 1.3 WSW 11 15 6 8 1017.0 1016.8 1.8
20/05:00am 13.6 11.5 11.1 85 1.3 W 13 15 7 8 1016.7 1016.5 1.8
20/04:30am 13.5 11.4 11.0 85 1.3 W 13 15 7 8 1016.6 1016.4 1.8
20/04:00am 13.5 11.1 11.4 87 1.1 WSW 15 19 8 10 1016.5 1016.3 1.8
20/03:30am 13.5 11.4 11.2 86 1.2 W 13 17 7 9 1016.7 1016.5 1.8
20/03:00am 13.2 11.2 11.5 89 0.9 WSW 13 15 7 8 1016.7 1016.5 1.8
20/02:30am 13.0 10.9 11.1 88 1.0 WSW 13 15 7 8 1016.6 1016.4 1.8
20/02:00am 13.1 11.0 11.0 87 1.1 SW 13 17 7 9 1016.7 1016.5 1.8
20/01:30am 13.2 10.2 10.7 85 1.3 WSW 17 20 9 11 1016.7 1016.5 1.8
20/01:00am 13.2 8.7 11.3 88 1.0 WSW 26 35 14 19 1016.9 1016.7 1.8
20/12:30am 12.3 8.9 10.6 89 0.9 WSW 19 20 10 11 1016.9 1016.7 1.8
20/12:00am 12.5 9.6 11.0 90 0.8 WSW 17 19 9 10 1017.0 1016.8 1.8
 
Date/Time
CDT
Temp
°C
App
Temp
°C
Dew
Point
°C
Rel
Hum
%
Delta-T
°C
Wind Press
QNH
hPa
Press
MSL
hPa
Rain since
9am
mm
Dir  Spd
km/h
Gust
km/h
Spd
kts
Gust
kts
19/11:30pm 12.6 10.1 11.1 91 0.8 WSW 15 19 8 10 1017.2 1017.0 1.8
19/11:00pm 13.1 10.8 11.6 91 0.8 W 15 17 8 9 1017.2 1017.0 1.8
19/10:30pm 13.5 11.7 12.2 92 0.7 W 13 19 7 10 1017.4 1017.2 1.8
19/10:00pm 13.7 11.6 12.4 92 0.7 SW 15 19 8 10 1017.3 1017.1 1.8
19/09:52pm 13.7 11.2 12.4 92 0.7 SW 17 20 9 11 1017.2 1017.0 1.8
19/09:30pm 13.9 11.0 12.2 89 0.9 SW 19 26 10 14 1017.2 1017.0 1.2
19/09:26pm 14.3 12.2 12.3 88 1.1 SW 15 20 8 11 1017.2 1017.0 0.6
19/09:00pm 14.8 11.6 11.2 79 1.9 SW 19 24 10 13 1016.8 1016.6 0.2
19/08:30pm 15.3 11.4 8.8 65 3.3 SW 19 22 10 12 1016.6 1016.4 0.2
19/08:00pm 16.1 11.2 8.4 60 3.9 SW 24 33 13 18 1016.2 1016.0 0.2
19/07:30pm 16.1 10.2 8.9 62 3.7 SW 30 39 16 21 1016.0 1015.8 0.2
19/07:00pm 16.2 10.0 9.9 66 3.3 SSW 33 43 18 23 1015.7 1015.5 0.2
19/06:30pm 18.3 11.7 8.4 52 5.1 SW 33 43 18 23 1015.4 1015.2 0.2
19/06:00pm 17.8 11.7 9.6 58 4.3 SSW 32 46 17 25 1015.4 1015.2 0.2
19/05:30pm 20.6 12.9 7.3 42 6.8 SW 37 48 20 26 1015.1 1014.9 0.2
19/05:00pm 20.4 13.1 7.3 42 6.7 SW 35 50 19 27 1015.0 1014.8 0.2
19/04:30pm 20.1 13.1 8.4 47 6.1 SW 35 50 19 27 1015.0 1014.8 0.2
19/04:18pm 19.0 11.6 8.4 50 5.5 SW 37 46 20 25 1015.0 1014.8 0.2
19/04:00pm 19.4 13.6 7.9 47 5.9 SSW 28 39 15 21 1015.1 1014.9 0.2
19/03:30pm 19.3 12.6 8.3 49 5.7 SW 33 44 18 24 1015.6 1015.4 0.2
19/03:00pm 19.1 12.4 7.3 46 6.0 SW 32 41 17 22 1015.5 1015.3 0.2
19/02:30pm 19.8 12.9 9.0 49 5.7 SSW 35 46 19 25 1015.6 1015.4 0.2
19/02:00pm 18.6 11.7 9.0 53 5.0 SW 35 46 19 25 1015.9 1015.7 0.2
19/01:40pm 17.8 11.7 9.9 60 4.2 SW 32 52 17 28 1016.1 1015.9 0.2
19/01:30pm 19.5 13.7 8.1 47 5.9 SW 28 41 15 22 1016.2 1016.0 0.2
19/01:00pm 18.4 12.3 8.1 51 5.3 WSW 30 37 16 20 1016.3 1016.1 0.2
19/12:30pm 19.5 13.6 7.3 45 6.2 SW 28 37 15 20 1016.4 1016.2 0.2
19/12:00pm 16.9 10.1 9.2 60 4.0 SW 35 50 19 27 1017.0 1016.8 0.2
19/11:30am 17.5 11.7 9.5 59 4.2 WSW 30 39 16 21 1016.8 1016.6 0.2
19/11:01am 16.5 10.6 10.3 67 3.3 SW 32 57 17 31 1016.9 1016.7 0.0
19/11:00am 17.8 11.9 8.9 56 4.6 SW 30 44 16 24 1016.9 1016.7 0.0
19/10:30am 17.4 12.1 8.4 55 4.6 WSW 26 33 14 18 1017.1 1016.9 0.0
19/10:00am 15.6 10.0 10.1 70 2.9 SW 30 39 16 21 1017.1 1016.9 0.0
19/09:45am 16.1 12.2 10.9 71 2.8 WSW 22 39 12 21 1017.0 1016.8 0.0
19/09:30am 15.6 13.4 12.1 80 1.9 WSW 15 20 8 11 1017.1 1016.9 0.0
19/09:14am 14.0 11.3 11.8 86 1.2 SW 17 22 9 12 1017.1 1016.9 0.0
19/09:00am 13.2 9.2 11.7 91 0.8 SW 24 35 13 19 1017.2 1017.0 1.0
19/08:49am 13.7 8.8 11.2 85 1.3 WSW 28 39 15 21 1017.2 1017.0 0.8
19/08:46am 14.3 10.4 10.9 80 1.8 WSW 22 37 12 20 1017.2 1017.0 0.6
19/08:30am 13.8 11.5 10.3 79 1.8 WSW 13 17 7 9 1016.8 1016.6 0.6
19/08:00am 13.3 10.3 9.4 77 2.0 W 15 19 8 10 1016.7 1016.5 0.6

Other Formats:

Comma delimited format used in spreadsheet applications
http://www.bom.gov.au/fwo/IDS60801/IDS60801.95818.axf

JavaScript Object Notation format (JSON) in row-major order
http://www.bom.gov.au/fwo/IDS60801/IDS60801.95818.json